sensor_id;sensor_type;location;lat;lon;timestamp;pressure;altitude;pressure_sealevel;temperature;humidity
10992;BME280;5549;47.028;15.514;2023-07-31T00:00:25;96504.75;;;19.48;89.47
10992;BME280;5549;47.028;15.514;2023-07-31T00:02:53;96504.19;;;19.68;88.66
10992;BME280;5549;47.028;15.514;2023-07-31T00:05:21;96495.28;;;19.75;87.93
10992;BME280;5549;47.028;15.514;2023-07-31T00:07:49;96497.81;;;19.83;87.03
10992;BME280;5549;47.028;15.514;2023-07-31T00:10:20;96492.31;;;19.85;86.46
10992;BME280;5549;47.028;15.514;2023-07-31T00:12:48;96493.31;;;19.84;86.28
10992;BME280;5549;47.028;15.514;2023-07-31T00:15:16;96487.63;;;19.87;85.69
10992;BME280;5549;47.028;15.514;2023-07-31T00:17:43;96488.69;;;19.93;84.98
10992;BME280;5549;47.028;15.514;2023-07-31T00:20:11;96495.50;;;19.95;84.49
10992;BME280;5549;47.028;15.514;2023-07-31T00:22:40;96490.41;;;20.00;84.55
10992;BME280;5549;47.028;15.514;2023-07-31T00:25:08;96489.41;;;20.01;84.56
10992;BME280;5549;47.028;15.514;2023-07-31T00:27:39;96495.00;;;20.06;84.16
10992;BME280;5549;47.028;15.514;2023-07-31T00:30:11;96500.97;;;20.08;83.61
10992;BME280;5549;47.028;15.514;2023-07-31T00:32:39;96496.09;;;19.76;85.68
10992;BME280;5549;47.028;15.514;2023-07-31T00:35:07;96495.88;;;19.92;84.72
10992;BME280;5549;47.028;15.514;2023-07-31T00:37:34;96496.56;;;20.01;83.85
10992;BME280;5549;47.028;15.514;2023-07-31T00:40:02;96496.38;;;20.02;83.15
10992;BME280;5549;47.028;15.514;2023-07-31T00:42:30;96495.63;;;20.08;84.46
10992;BME280;5549;47.028;15.514;2023-07-31T00:45:01;96498.56;;;20.13;84.16
10992;BME280;5549;47.028;15.514;2023-07-31T00:47:29;96507.00;;;20.17;83.20
10992;BME280;5549;47.028;15.514;2023-07-31T00:49:57;96503.50;;;20.16;82.98
10992;BME280;5549;47.028;15.514;2023-07-31T00:52:27;96507.19;;;20.15;82.47
10992;BME280;5549;47.028;15.514;2023-07-31T00:54:56;96496.13;;;20.18;81.90
10992;BME280;5549;47.028;15.514;2023-07-31T00:57:26;96500.91;;;20.23;82.07
10992;BME280;5549;47.028;15.514;2023-07-31T00:59:56;96504.53;;;20.15;82.77
10992;BME280;5549;47.028;15.514;2023-07-31T01:02:27;96498.56;;;20.13;83.46
10992;BME280;5549;47.028;15.514;2023-07-31T01:04:57;96501.97;;;20.07;84.98
10992;BME280;5549;47.028;15.514;2023-07-31T01:07:35;96490.69;;;20.05;84.64
10992;BME280;5549;47.028;15.514;2023-07-31T01:10:19;96486.72;;;19.80;84.96
10992;BME280;5549;47.028;15.514;2023-07-31T01:12:48;96481.00;;;19.83;83.98
10992;BME280;5549;47.028;15.514;2023-07-31T01:15:20;96484.88;;;19.80;83.41
10992;BME280;5549;47.028;15.514;2023-07-31T01:17:49;96485.81;;;19.73;82.64
10992;BME280;5549;47.028;15.514;2023-07-31T01:20:22;96482.50;;;19.71;82.29
10992;BME280;5549;47.028;15.514;2023-07-31T01:26:11;96476.56;;;19.69;84.65
10992;BME280;5549;47.028;15.514;2023-07-31T01:28:50;96473.88;;;19.69;84.17
10992;BME280;5549;47.028;15.514;2023-07-31T01:31:24;96470.03;;;19.71;83.74
10992;BME280;5549;47.028;15.514;2023-07-31T01:34:00;96473.50;;;19.72;83.25
10992;BME280;5549;47.028;15.514;2023-07-31T01:36:28;96479.84;;;19.71;82.93
10992;BME280;5549;47.028;15.514;2023-07-31T01:39:00;96480.69;;;19.71;82.46
10992;BME280;5549;47.028;15.514;2023-07-31T01:41:29;96484.81;;;19.74;82.16
10992;BME280;5549;47.028;15.514;2023-07-31T01:43:58;96491.97;;;19.73;81.73
10992;BME280;5549;47.028;15.514;2023-07-31T01:46:27;96494.44;;;19.75;81.80
10992;BME280;5549;47.028;15.514;2023-07-31T01:48:55;96485.44;;;19.76;81.48
10992;BME280;5549;47.028;15.514;2023-07-31T01:51:25;96486.91;;;19.78;81.34
10992;BME280;5549;47.028;15.514;2023-07-31T01:53:52;96484.06;;;19.80;81.30
10992;BME280;5549;47.028;15.514;2023-07-31T01:56:20;96486.34;;;19.83;82.17
10992;BME280;5549;47.028;15.514;2023-07-31T01:58:51;96491.28;;;19.86;82.77
10992;BME280;5549;47.028;15.514;2023-07-31T02:01:20;96485.78;;;19.88;82.58
10992;BME280;5549;47.028;15.514;2023-07-31T02:03:51;96492.56;;;19.90;82.85
10992;BME280;5549;47.028;15.514;2023-07-31T02:06:18;96490.91;;;19.89;82.58
10992;BME280;5549;47.028;15.514;2023-07-31T02:08:48;96490.88;;;19.68;83.27
10992;BME280;5549;47.028;15.514;2023-07-31T02:11:16;96493.38;;;19.54;82.54
10992;BME280;5549;47.028;15.514;2023-07-31T02:13:43;96492.84;;;19.59;81.50
10992;BME280;5549;47.028;15.514;2023-07-31T02:16:13;96501.19;;;19.56;81.53
10992;BME280;5549;47.028;15.514;2023-07-31T02:18:40;96505.88;;;19.54;80.92
10992;BME280;5549;47.028;15.514;2023-07-31T02:21:12;96503.22;;;19.54;80.76
10992;BME280;5549;47.028;15.514;2023-07-31T02:23:39;96509.44;;;19.46;81.76
10992;BME280;5549;47.028;15.514;2023-07-31T02:26:07;96507.22;;;19.50;81.50
10992;BME280;5549;47.028;15.514;2023-07-31T02:28:34;96508.88;;;19.51;81.67
10992;BME280;5549;47.028;15.514;2023-07-31T02:31:02;96502.56;;;19.52;81.06
10992;BME280;5549;47.028;15.514;2023-07-31T02:33:31;96500.38;;;19.56;80.82
10992;BME280;5549;47.028;15.514;2023-07-31T02:36:01;96502.84;;;19.57;80.76
10992;BME280;5549;47.028;15.514;2023-07-31T02:38:30;96502.66;;;19.59;80.91
10992;BME280;5549;47.028;15.514;2023-07-31T02:40:58;96501.66;;;19.60;80.42
10992;BME280;5549;47.028;15.514;2023-07-31T02:43:25;96504.03;;;19.54;82.23
10992;BME280;5549;47.028;15.514;2023-07-31T02:45:53;96507.34;;;19.57;83.43
10992;BME280;5549;47.028;15.514;2023-07-31T02:48:21;96499.06;;;19.51;83.47
10992;BME280;5549;47.028;15.514;2023-07-31T02:50:51;96507.22;;;19.50;83.22
10992;BME280;5549;47.028;15.514;2023-07-31T02:53:21;96511.72;;;19.49;83.36
10992;BME280;5549;47.028;15.514;2023-07-31T02:55:51;96503.75;;;19.49;83.60
10992;BME280;5549;47.028;15.514;2023-07-31T02:58:21;96506.06;;;19.52;83.08
10992;BME280;5549;47.028;15.514;2023-07-31T03:00:48;96510.00;;;19.57;81.75
10992;BME280;5549;47.028;15.514;2023-07-31T03:03:18;96506.34;;;19.58;80.80
10992;BME280;5549;47.028;15.514;2023-07-31T03:05:45;96506.16;;;19.59;79.79
10992;BME280;5549;47.028;15.514;2023-07-31T03:08:16;96501.19;;;19.56;77.06
10992;BME280;5549;47.028;15.514;2023-07-31T03:10:44;96497.53;;;19.57;78.01
10992;BME280;5549;47.028;15.514;2023-07-31T03:13:18;96504.38;;;19.51;80.16
10992;BME280;5549;47.028;15.514;2023-07-31T03:15:49;96508.72;;;19.52;79.77
10992;BME280;5549;47.028;15.514;2023-07-31T03:18:18;96507.06;;;19.51;80.27
10992;BME280;5549;47.028;15.514;2023-07-31T03:20:48;96499.91;;;19.52;81.09
10992;BME280;5549;47.028;15.514;2023-07-31T03:23:17;96507.22;;;19.50;81.58
10992;BME280;5549;47.028;15.514;2023-07-31T03:25:57;96508.44;;;19.47;81.20
10992;BME280;5549;47.028;15.514;2023-07-31T03:28:25;96510.81;;;19.42;80.71
10992;BME280;5549;47.028;15.514;2023-07-31T03:30:53;96514.88;;;19.38;80.65
10992;BME280;5549;47.028;15.514;2023-07-31T03:33:22;96521.47;;;19.42;80.09
10992;BME280;5549;47.028;15.514;2023-07-31T03:35:50;96522.13;;;19.44;79.06
10992;BME280;5549;47.028;15.514;2023-07-31T03:38:19;96530.84;;;19.09;81.60
10992;BME280;5549;47.028;15.514;2023-07-31T03:40:46;96535.56;;;18.99;82.07
10992;BME280;5549;47.028;15.514;2023-07-31T03:43:15;96533.56;;;19.01;81.80
10992;BME280;5549;47.028;15.514;2023-07-31T03:45:42;96536.41;;;18.99;81.84
10992;BME280;5549;47.028;15.514;2023-07-31T03:48:14;96533.63;;;18.78;82.97
10992;BME280;5549;47.028;15.514;2023-07-31T03:50:42;96534.91;;;18.59;84.47
10992;BME280;5549;47.028;15.514;2023-07-31T03:53:10;96529.56;;;18.67;83.68
10992;BME280;5549;47.028;15.514;2023-07-31T03:55:39;96538.53;;;18.43;84.03
10992;BME280;5549;47.028;15.514;2023-07-31T03:58:07;96540.13;;;18.52;83.77
10992;BME280;5549;47.028;15.514;2023-07-31T04:00:34;96534.44;;;18.55;83.39
10992;BME280;5549;47.028;15.514;2023-07-31T04:03:04;96538.59;;;18.58;82.83
10992;BME280;5549;47.028;15.514;2023-07-31T04:05:32;96532.94;;;18.61;82.66
10992;BME280;5549;47.028;15.514;2023-07-31T04:08:02;96533.09;;;18.59;82.27
10992;BME280;5549;47.028;15.514;2023-07-31T04:10:32;96530.28;;;18.61;82.32
10992;BME280;5549;47.028;15.514;2023-07-31T04:13:01;96522.41;;;18.68;81.89
10992;BME280;5549;47.028;15.514;2023-07-31T04:15:28;96527.53;;;18.69;81.52
10992;BME280;5549;47.028;15.514;2023-07-31T04:17:56;96534.34;;;18.72;81.48
10992;BME280;5549;47.028;15.514;2023-07-31T04:20:26;96535.16;;;18.72;81.63
10992;BME280;5549;47.028;15.514;2023-07-31T04:22:56;96523.50;;;18.73;81.31
10992;BME280;5549;47.028;15.514;2023-07-31T04:25:23;96534.22;;;18.65;81.58
10992;BME280;5549;47.028;15.514;2023-07-31T04:27:51;96534.22;;;18.42;83.33
10992;BME280;5549;47.028;15.514;2023-07-31T04:30:20;96536.75;;;18.58;82.57
10992;BME280;5549;47.028;15.514;2023-07-31T04:32:49;96536.06;;;18.65;82.61
10992;BME280;5549;47.028;15.514;2023-07-31T04:35:19;96537.34;;;18.69;83.08
10992;BME280;5549;47.028;15.514;2023-07-31T04:37:47;96541.97;;;18.75;83.06
10992;BME280;5549;47.028;15.514;2023-07-31T04:40:15;96531.50;;;18.73;83.93
10992;BME280;5549;47.028;15.514;2023-07-31T04:42:45;96532.56;;;18.64;84.97
10992;BME280;5549;47.028;15.514;2023-07-31T04:45:15;96533.50;;;18.71;85.09
10992;BME280;5549;47.028;15.514;2023-07-31T04:47:44;96536.56;;;18.83;84.50
10992;BME280;5549;47.028;15.514;2023-07-31T04:50:12;96537.38;;;18.83;84.51
10992;BME280;5549;47.028;15.514;2023-07-31T04:52:40;96537.38;;;18.83;83.91
10992;BME280;5549;47.028;15.514;2023-07-31T04:55:08;96538.41;;;18.82;83.89
10992;BME280;5549;47.028;15.514;2023-07-31T04:57:39;96549.88;;;18.60;84.75
10992;BME280;5549;47.028;15.514;2023-07-31T05:00:08;96547.34;;;18.44;86.37
10992;BME280;5549;47.028;15.514;2023-07-31T05:02:38;96544.03;;;18.65;85.87
10992;BME280;5549;47.028;15.514;2023-07-31T05:05:09;96541.25;;;18.81;85.15
10992;BME280;5549;47.028;15.514;2023-07-31T05:07:37;96538.31;;;18.90;84.50
10992;BME280;5549;47.028;15.514;2023-07-31T05:10:06;96540.44;;;18.95;84.07
10992;BME280;5549;47.028;15.514;2023-07-31T05:12:33;96540.88;;;18.84;84.35
10992;BME280;5549;47.028;15.514;2023-07-31T05:15:01;96535.75;;;18.97;84.41
10992;BME280;5549;47.028;15.514;2023-07-31T05:17:28;96536.03;;;19.02;84.32
10992;BME280;5549;47.028;15.514;2023-07-31T05:19:56;96539.44;;;18.96;86.47
10992;BME280;5549;47.028;15.514;2023-07-31T05:22:27;96542.84;;;19.05;86.58
10992;BME280;5549;47.028;15.514;2023-07-31T05:24:57;96547.28;;;19.12;86.08
10992;BME280;5549;47.028;15.514;2023-07-31T05:27:25;96554.72;;;19.17;85.68
10992;BME280;5549;47.028;15.514;2023-07-31T05:29:52;96553.44;;;19.13;85.86
10992;BME280;5549;47.028;15.514;2023-07-31T05:32:20;96558.66;;;19.21;85.37
10992;BME280;5549;47.028;15.514;2023-07-31T05:34:55;96567.22;;;19.31;84.83
10992;BME280;5549;47.028;15.514;2023-07-31T05:37:22;96569.22;;;19.44;84.13
10992;BME280;5549;47.028;15.514;2023-07-31T05:39:53;96567.84;;;19.48;84.44
10992;BME280;5549;47.028;15.514;2023-07-31T05:42:23;96576.50;;;19.50;84.89
10992;BME280;5549;47.028;15.514;2023-07-31T05:44:51;96577.25;;;19.59;85.61
10992;BME280;5549;47.028;15.514;2023-07-31T05:47:18;96577.59;;;19.70;85.10
10992;BME280;5549;47.028;15.514;2023-07-31T05:49:46;96579.81;;;19.81;84.42
10992;BME280;5549;47.028;15.514;2023-07-31T05:52:13;96582.19;;;19.91;84.19
10992;BME280;5549;47.028;15.514;2023-07-31T05:54:42;96580.03;;;20.01;84.27
10992;BME280;5549;47.028;15.514;2023-07-31T05:57:11;96584.44;;;20.09;82.68
10992;BME280;5549;47.028;15.514;2023-07-31T05:59:38;96587.38;;;20.14;83.02
10992;BME280;5549;47.028;15.514;2023-07-31T06:02:06;96581.13;;;20.07;83.75
10992;BME280;5549;47.028;15.514;2023-07-31T06:04:34;96587.69;;;20.26;83.45
10992;BME280;5549;47.028;15.514;2023-07-31T06:07:01;96587.59;;;20.34;82.50
10992;BME280;5549;47.028;15.514;2023-07-31T06:09:29;96585.47;;;20.44;81.67
10992;BME280;5549;47.028;15.514;2023-07-31T06:11:57;96581.84;;;20.52;76.88
10992;BME280;5549;47.028;15.514;2023-07-31T06:14:28;96585.84;;;20.62;77.70
10992;BME280;5549;47.028;15.514;2023-07-31T06:16:56;96586.59;;;20.77;76.43
10992;BME280;5549;47.028;15.514;2023-07-31T06:19:23;96588.41;;;20.92;77.40
10992;BME280;5549;47.028;15.514;2023-07-31T06:21:53;96582.16;;;21.06;71.91
10992;BME280;5549;47.028;15.514;2023-07-31T06:24:23;96573.47;;;21.25;75.23
10992;BME280;5549;47.028;15.514;2023-07-31T06:26:50;96567.44;;;21.44;75.08
10992;BME280;5549;47.028;15.514;2023-07-31T06:29:18;96560.94;;;21.60;73.53
10992;BME280;5549;47.028;15.514;2023-07-31T06:31:47;96559.75;;;21.69;64.12
10992;BME280;5549;47.028;15.514;2023-07-31T06:34:17;96559.78;;;21.76;62.54
10992;BME280;5549;47.028;15.514;2023-07-31T06:36:47;96569.53;;;21.97;62.48
10992;BME280;5549;47.028;15.514;2023-07-31T06:39:14;96570.22;;;22.05;64.78
10992;BME280;5549;47.028;15.514;2023-07-31T06:41:44;96572.78;;;22.40;63.97
10992;BME280;5549;47.028;15.514;2023-07-31T06:44:12;96574.31;;;22.62;63.14
10992;BME280;5549;47.028;15.514;2023-07-31T06:46:43;96565.50;;;22.82;64.13
10992;BME280;5549;47.028;15.514;2023-07-31T06:49:14;96570.03;;;23.08;64.21
10992;BME280;5549;47.028;15.514;2023-07-31T06:51:44;96562.59;;;23.29;63.26
10992;BME280;5549;47.028;15.514;2023-07-31T06:54:12;96567.09;;;23.49;62.29
10992;BME280;5549;47.028;15.514;2023-07-31T06:56:39;96563.78;;;23.47;62.79
10992;BME280;5549;47.028;15.514;2023-07-31T06:59:07;96562.75;;;23.48;65.79
10992;BME280;5549;47.028;15.514;2023-07-31T07:01:34;96555.56;;;23.55;64.34
10992;BME280;5549;47.028;15.514;2023-07-31T07:04:02;96558.81;;;23.63;64.50
10992;BME280;5549;47.028;15.514;2023-07-31T07:06:33;96545.59;;;23.75;65.24
10992;BME280;5549;47.028;15.514;2023-07-31T07:09:01;96555.94;;;23.65;65.13
10992;BME280;5549;47.028;15.514;2023-07-31T07:11:29;96551.84;;;23.43;61.94
10992;BME280;5549;47.028;15.514;2023-07-31T07:13:57;96561.50;;;23.50;61.49
10992;BME280;5549;47.028;15.514;2023-07-31T07:16:29;96556.19;;;23.24;63.97
10992;BME280;5549;47.028;15.514;2023-07-31T07:18:56;96557.53;;;23.79;65.13
10992;BME280;5549;47.028;15.514;2023-07-31T07:21:26;96563.97;;;24.16;62.64
10992;BME280;5549;47.028;15.514;2023-07-31T07:23:54;96562.56;;;24.14;60.75
10992;BME280;5549;47.028;15.514;2023-07-31T07:26:22;96575.91;;;24.40;60.70
10992;BME280;5549;47.028;15.514;2023-07-31T07:28:49;96571.13;;;24.42;60.62
10992;BME280;5549;47.028;15.514;2023-07-31T07:31:17;96574.53;;;24.62;59.47
10992;BME280;5549;47.028;15.514;2023-07-31T07:33:44;96566.53;;;24.81;61.42
10992;BME280;5549;47.028;15.514;2023-07-31T07:36:14;96565.09;;;25.10;60.11
10992;BME280;5549;47.028;15.514;2023-07-31T07:38:42;96567.28;;;25.19;59.11
10992;BME280;5549;47.028;15.514;2023-07-31T07:41:13;96568.88;;;25.02;58.04
10992;BME280;5549;47.028;15.514;2023-07-31T07:43:43;96565.34;;;25.26;55.44
10992;BME280;5549;47.028;15.514;2023-07-31T07:46:13;96570.34;;;25.23;54.39
10992;BME280;5549;47.028;15.514;2023-07-31T07:48:40;96554.47;;;25.40;55.37
10992;BME280;5549;47.028;15.514;2023-07-31T07:51:10;96549.19;;;25.51;53.93
10992;BME280;5549;47.028;15.514;2023-07-31T07:53:40;96556.22;;;25.52;55.23
10992;BME280;5549;47.028;15.514;2023-07-31T07:56:08;96547.28;;;25.77;54.44
10992;BME280;5549;47.028;15.514;2023-07-31T07:58:39;96541.31;;;25.75;53.99
10992;BME280;5549;47.028;15.514;2023-07-31T08:01:07;96546.50;;;25.51;53.42
10992;BME280;5549;47.028;15.514;2023-07-31T08:03:36;96549.59;;;25.73;53.57
10992;BME280;5549;47.028;15.514;2023-07-31T08:06:06;96549.66;;;25.67;55.82
10992;BME280;5549;47.028;15.514;2023-07-31T08:08:37;96556.72;;;25.61;53.11
10992;BME280;5549;47.028;15.514;2023-07-31T08:11:05;96556.28;;;25.64;51.90
10992;BME280;5549;47.028;15.514;2023-07-31T08:13:35;96555.38;;;25.34;54.67
10992;BME280;5549;47.028;15.514;2023-07-31T08:16:07;96545.75;;;25.44;52.92
10992;BME280;5549;47.028;15.514;2023-07-31T08:18:36;96549.72;;;25.60;54.51
10992;BME280;5549;47.028;15.514;2023-07-31T08:21:04;96544.78;;;25.57;56.52
10992;BME280;5549;47.028;15.514;2023-07-31T08:23:31;96543.13;;;25.56;54.83
10992;BME280;5549;47.028;15.514;2023-07-31T08:26:01;96541.81;;;25.65;52.83
10992;BME280;5549;47.028;15.514;2023-07-31T08:28:28;96539.56;;;25.62;54.93
10992;BME280;5549;47.028;15.514;2023-07-31T08:30:58;96545.16;;;25.61;54.11
10992;BME280;5549;47.028;15.514;2023-07-31T08:33:27;96534.66;;;25.77;53.16
10992;BME280;5549;47.028;15.514;2023-07-31T08:35:57;96542.00;;;25.45;55.75
10992;BME280;5549;47.028;15.514;2023-07-31T08:38:28;96541.31;;;25.75;57.98
10992;BME280;5549;47.028;15.514;2023-07-31T08:45:49;96534.13;;;25.87;54.48
10992;BME280;5549;47.028;15.514;2023-07-31T08:48:18;96545.56;;;26.01;53.76
10992;BME280;5549;47.028;15.514;2023-07-31T08:50:47;96538.75;;;25.98;51.68
10992;BME280;5549;47.028;15.514;2023-07-31T08:53:17;96534.94;;;25.87;46.27
10992;BME280;5549;47.028;15.514;2023-07-31T08:55:45;96542.03;;;25.82;51.66
10992;BME280;5549;47.028;15.514;2023-07-31T08:58:13;96538.09;;;26.03;52.99
10992;BME280;5549;47.028;15.514;2023-07-31T09:00:41;96529.88;;;26.46;55.65
10992;BME280;5549;47.028;15.514;2023-07-31T09:03:15;96543.25;;;26.52;52.31
10992;BME280;5549;47.028;15.514;2023-07-31T09:05:45;96547.31;;;26.25;50.50
10992;BME280;5549;47.028;15.514;2023-07-31T09:08:18;96547.22;;;26.32;49.11
10992;BME280;5549;47.028;15.514;2023-07-31T09:10:47;96543.00;;;26.24;49.73
10992;BME280;5549;47.028;15.514;2023-07-31T09:13:18;96546.81;;;26.35;51.73
10992;BME280;5549;47.028;15.514;2023-07-31T09:15:46;96541.34;;;26.23;50.79
10992;BME280;5549;47.028;15.514;2023-07-31T09:18:16;96544.00;;;26.71;54.51
10992;BME280;5549;47.028;15.514;2023-07-31T09:20:46;96547.44;;;26.48;52.53
10992;BME280;5549;47.028;15.514;2023-07-31T09:23:41;96538.72;;;26.76;52.05
10992;BME280;5549;47.028;15.514;2023-07-31T09:26:09;96539.97;;;26.50;53.84
10992;BME280;5549;47.028;15.514;2023-07-31T09:28:40;96534.16;;;26.77;52.43
10992;BME280;5549;47.028;15.514;2023-07-31T09:31:08;96534.28;;;26.82;51.54
10992;BME280;5549;47.028;15.514;2023-07-31T09:33:54;96536.16;;;26.81;48.78
10992;BME280;5549;47.028;15.514;2023-07-31T09:36:22;96525.63;;;26.92;52.15
10992;BME280;5549;47.028;15.514;2023-07-31T09:38:54;96521.69;;;27.06;48.99
10992;BME280;5549;47.028;15.514;2023-07-31T09:45:24;96515.00;;;27.32;49.59
10992;BME280;5549;47.028;15.514;2023-07-31T09:47:55;96512.78;;;27.40;52.24
10992;BME280;5549;47.028;15.514;2023-07-31T09:50:25;96511.56;;;27.60;48.02
10992;BME280;5549;47.028;15.514;2023-07-31T09:52:55;96503.59;;;27.53;46.93
10992;BME280;5549;47.028;15.514;2023-07-31T09:55:24;96503.72;;;27.58;50.56
10992;BME280;5549;47.028;15.514;2023-07-31T09:57:52;96501.72;;;27.54;45.98
10992;BME280;5549;47.028;15.514;2023-07-31T10:00:25;96490.56;;;27.73;47.09
10992;BME280;5549;47.028;15.514;2023-07-31T10:02:54;96492.00;;;27.53;50.24
10992;BME280;5549;47.028;15.514;2023-07-31T10:05:31;96486.63;;;27.76;47.63
10992;BME280;5549;47.028;15.514;2023-07-31T10:07:58;96489.56;;;27.74;46.41
10992;BME280;5549;47.028;15.514;2023-07-31T10:10:27;96489.16;;;27.59;49.44
10992;BME280;5549;47.028;15.514;2023-07-31T10:12:57;96489.31;;;27.53;48.22
10992;BME280;5549;47.028;15.514;2023-07-31T10:15:26;96485.47;;;27.37;49.52
10992;BME280;5549;47.028;15.514;2023-07-31T10:17:56;96484.00;;;27.58;51.71
10992;BME280;5549;47.028;15.514;2023-07-31T10:20:24;96485.19;;;27.50;48.61
10992;BME280;5549;47.028;15.514;2023-07-31T10:22:52;96483.13;;;27.29;49.40
10992;BME280;5549;47.028;15.514;2023-07-31T10:25:22;96483.66;;;27.54;48.40
10992;BME280;5549;47.028;15.514;2023-07-31T10:27:53;96482.97;;;27.70;48.96
10992;BME280;5549;47.028;15.514;2023-07-31T10:30:32;96478.66;;;27.46;49.33
10992;BME280;5549;47.028;15.514;2023-07-31T10:33:01;96468.75;;;27.87;48.34
10992;BME280;5549;47.028;15.514;2023-07-31T10:35:29;96470.19;;;27.77;47.66
10992;BME280;5549;47.028;15.514;2023-07-31T10:38:10;96468.75;;;27.87;51.64
10992;BME280;5549;47.028;15.514;2023-07-31T10:40:38;96465.81;;;27.88;49.89
10992;BME280;5549;47.028;15.514;2023-07-31T10:43:07;96469.91;;;27.91;50.04
10992;BME280;5549;47.028;15.514;2023-07-31T10:45:39;96465.13;;;27.58;49.63
10992;BME280;5549;47.028;15.514;2023-07-31T10:48:13;96458.19;;;27.73;50.27
10992;BME280;5549;47.028;15.514;2023-07-31T10:50:48;96456.97;;;27.29;48.75
10992;BME280;5549;47.028;15.514;2023-07-31T10:53:25;96452.84;;;27.50;46.69
10992;BME280;5549;47.028;15.514;2023-07-31T10:55:53;96466.69;;;27.42;46.11
10992;BME280;5549;47.028;15.514;2023-07-31T10:58:26;96457.69;;;27.13;47.82
10992;BME280;5549;47.028;15.514;2023-07-31T11:00:56;96459.09;;;27.27;50.31
10992;BME280;5549;47.028;15.514;2023-07-31T11:03:42;96456.47;;;27.44;49.24
10992;BME280;5549;47.028;15.514;2023-07-31T11:06:14;96449.47;;;27.31;51.38
10992;BME280;5549;47.028;15.514;2023-07-31T11:08:43;96452.47;;;27.58;51.26
10992;BME280;5549;47.028;15.514;2023-07-31T11:11:14;96453.06;;;27.60;46.61
10992;BME280;5549;47.028;15.514;2023-07-31T11:13:47;96441.03;;;27.28;48.95
10992;BME280;5549;47.028;15.514;2023-07-31T11:16:19;96443.53;;;27.69;51.21
10992;BME280;5549;47.028;15.514;2023-07-31T11:18:48;96435.50;;;27.98;50.34
10992;BME280;5549;47.028;15.514;2023-07-31T11:21:19;96442.41;;;28.22;49.15
10992;BME280;5549;47.028;15.514;2023-07-31T11:23:47;96437.22;;;28.66;46.58
10992;BME280;5549;47.028;15.514;2023-07-31T11:26:16;96437.81;;;28.51;46.73
10992;BME280;5549;47.028;15.514;2023-07-31T11:28:47;96435.59;;;28.31;47.20
10992;BME280;5549;47.028;15.514;2023-07-31T11:31:17;96434.72;;;28.14;46.80
10992;BME280;5549;47.028;15.514;2023-07-31T11:33:48;96421.41;;;28.24;47.11
10992;BME280;5549;47.028;15.514;2023-07-31T11:36:20;96423.34;;;27.84;48.97
10992;BME280;5549;47.028;15.514;2023-07-31T11:38:50;96417.38;;;27.82;50.04
10992;BME280;5549;47.028;15.514;2023-07-31T11:41:18;96415.81;;;28.14;48.63
10992;BME280;5549;47.028;15.514;2023-07-31T11:43:48;96418.09;;;28.22;49.99
10992;BME280;5549;47.028;15.514;2023-07-31T11:46:17;96420.16;;;28.15;48.17
10992;BME280;5549;47.028;15.514;2023-07-31T11:48:59;96417.41;;;27.98;50.29
10992;BME280;5549;47.028;15.514;2023-07-31T11:51:29;96410.03;;;27.94;49.29
10992;BME280;5549;47.028;15.514;2023-07-31T11:54:01;96411.34;;;27.91;48.69
10992;BME280;5549;47.028;15.514;2023-07-31T11:56:31;96406.13;;;27.73;49.48
10992;BME280;5549;47.028;15.514;2023-07-31T11:59:01;96407.06;;;27.78;50.45
10992;BME280;5549;47.028;15.514;2023-07-31T12:01:33;96403.47;;;27.61;50.30
10992;BME280;5549;47.028;15.514;2023-07-31T12:04:01;96398.00;;;27.73;50.67
10992;BME280;5549;47.028;15.514;2023-07-31T12:06:36;96393.00;;;27.76;48.86
10992;BME280;5549;47.028;15.514;2023-07-31T12:09:06;96380.41;;;27.82;47.09
10992;BME280;5549;47.028;15.514;2023-07-31T12:11:43;96384.59;;;27.90;46.81
10992;BME280;5549;47.028;15.514;2023-07-31T12:14:25;96372.78;;;27.79;48.82
10992;BME280;5549;47.028;15.514;2023-07-31T12:16:55;96374.09;;;27.76;48.84
10992;BME280;5549;47.028;15.514;2023-07-31T12:19:23;96367.44;;;27.56;49.40
10992;BME280;5549;47.028;15.514;2023-07-31T12:21:56;96363.22;;;27.20;50.51
10992;BME280;5549;47.028;15.514;2023-07-31T12:24:26;96355.25;;;27.13;50.22
10992;BME280;5549;47.028;15.514;2023-07-31T12:26:56;96355.16;;;26.96;51.85
10992;BME280;5549;47.028;15.514;2023-07-31T12:29:35;96357.13;;;27.12;52.76
10992;BME280;5549;47.028;15.514;2023-07-31T12:32:18;96352.91;;;27.16;51.37
10992;BME280;5549;47.028;15.514;2023-07-31T12:34:48;96335.44;;;27.47;49.46
10992;BME280;5549;47.028;15.514;2023-07-31T12:37:18;96347.00;;;27.71;50.84
10992;BME280;5549;47.028;15.514;2023-07-31T12:39:48;96336.47;;;27.58;50.99
10992;BME280;5549;47.028;15.514;2023-07-31T12:42:17;96339.22;;;27.46;49.25
10992;BME280;5549;47.028;15.514;2023-07-31T12:44:46;96337.81;;;27.44;49.21
10992;BME280;5549;47.028;15.514;2023-07-31T12:47:16;96326.63;;;27.52;49.37
10992;BME280;5549;47.028;15.514;2023-07-31T12:49:43;96326.34;;;27.37;51.22
10992;BME280;5549;47.028;15.514;2023-07-31T12:52:13;96315.47;;;27.32;49.40
10992;BME280;5549;47.028;15.514;2023-07-31T12:54:40;96310.78;;;27.27;49.99
10992;BME280;5549;47.028;15.514;2023-07-31T12:57:08;96320.34;;;27.06;52.30
10992;BME280;5549;47.028;15.514;2023-07-31T12:59:36;96319.66;;;26.99;51.38
10992;BME280;5549;47.028;15.514;2023-07-31T13:02:07;96317.88;;;27.45;51.98
10992;BME280;5549;47.028;15.514;2023-07-31T13:04:37;96319.91;;;27.38;53.15
10992;BME280;5549;47.028;15.514;2023-07-31T13:07:06;96311.84;;;27.55;50.80
10992;BME280;5549;47.028;15.514;2023-07-31T13:09:34;96311.56;;;27.79;49.71
10992;BME280;5549;47.028;15.514;2023-07-31T13:12:01;96309.59;;;27.92;51.67
10992;BME280;5549;47.028;15.514;2023-07-31T13:14:31;96300.53;;;27.69;49.36
10992;BME280;5549;47.028;15.514;2023-07-31T13:16:59;96303.16;;;27.64;49.49
10992;BME280;5549;47.028;15.514;2023-07-31T13:19:30;96296.50;;;27.84;48.33
10992;BME280;5549;47.028;15.514;2023-07-31T13:22:00;96289.56;;;28.21;48.62
10992;BME280;5549;47.028;15.514;2023-07-31T13:24:29;96294.09;;;28.32;48.39